sensor_id;sensor_type;location;lat;lon;timestamp;P1;durP1;ratioP1;P2;durP2;ratioP2
56297;SDS011;42208;6.376;-10.782;2022-12-13T00:01:48;147.65;;;48.08;;
56297;SDS011;42208;6.376;-10.782;2022-12-13T00:04:20;153.32;;;50.83;;
56297;SDS011;42208;6.376;-10.782;2022-12-13T00:06:49;116.88;;;39.15;;
56297;SDS011;42208;6.376;-10.782;2022-12-13T00:09:18;151.30;;;46.72;;
56297;SDS011;42208;6.376;-10.782;2022-12-13T00:11:48;138.70;;;47.05;;
56297;SDS011;42208;6.376;-10.782;2022-12-13T00:14:17;176.02;;;63.35;;
56297;SDS011;42208;6.376;-10.782;2022-12-13T00:16:47;194.35;;;58.65;;
56297;SDS011;42208;6.376;-10.782;2022-12-13T00:19:16;189.88;;;62.63;;
56297;SDS011;42208;6.376;-10.782;2022-12-13T00:21:45;170.20;;;53.70;;
56297;SDS011;42208;6.376;-10.782;2022-12-13T00:24:14;165.32;;;53.53;;
56297;SDS011;42208;6.376;-10.782;2022-12-13T00:26:43;194.88;;;63.55;;
56297;SDS011;42208;6.376;-10.782;2022-12-13T00:29:12;239.65;;;83.25;;
56297;SDS011;42208;6.376;-10.782;2022-12-13T00:31:40;215.30;;;80.18;;
56297;SDS011;42208;6.376;-10.782;2022-12-13T00:34:26;193.25;;;70.00;;
56297;SDS011;42208;6.376;-10.782;2022-12-13T00:36:55;201.55;;;75.63;;
56297;SDS011;42208;6.376;-10.782;2022-12-13T00:39:24;179.45;;;65.65;;
56297;SDS011;42208;6.376;-10.782;2022-12-13T00:41:52;185.98;;;62.50;;
56297;SDS011;42208;6.376;-10.782;2022-12-13T00:44:21;195.45;;;65.30;;
56297;SDS011;42208;6.376;-10.782;2022-12-13T00:46:49;184.15;;;67.80;;
56297;SDS011;42208;6.376;-10.782;2022-12-13T00:49:17;222.13;;;73.32;;
56297;SDS011;42208;6.376;-10.782;2022-12-13T00:51:47;187.25;;;62.20;;
56297;SDS011;42208;6.376;-10.782;2022-12-13T00:54:15;230.98;;;72.63;;
56297;SDS011;42208;6.376;-10.782;2022-12-13T00:56:44;218.40;;;68.13;;
56297;SDS011;42208;6.376;-10.782;2022-12-13T00:59:13;192.02;;;67.35;;
56297;SDS011;42208;6.376;-10.782;2022-12-13T01:01:42;123.00;;;45.58;;
56297;SDS011;42208;6.376;-10.782;2022-12-13T01:04:11;131.13;;;45.15;;
56297;SDS011;42208;6.376;-10.782;2022-12-13T01:06:43;98.50;;;35.95;;
56297;SDS011;42208;6.376;-10.782;2022-12-13T01:09:15;102.88;;;38.03;;
56297;SDS011;42208;6.376;-10.782;2022-12-13T01:11:48;142.63;;;51.88;;
56297;SDS011;42208;6.376;-10.782;2022-12-13T01:14:17;137.70;;;50.85;;
56297;SDS011;42208;6.376;-10.782;2022-12-13T01:16:45;136.40;;;49.35;;
56297;SDS011;42208;6.376;-10.782;2022-12-13T01:19:14;76.00;;;26.38;;
56297;SDS011;42208;6.376;-10.782;2022-12-13T01:21:42;56.00;;;20.45;;
56297;SDS011;42208;6.376;-10.782;2022-12-13T01:24:11;59.80;;;20.52;;
56297;SDS011;42208;6.376;-10.782;2022-12-13T01:26:39;65.90;;;22.25;;
56297;SDS011;42208;6.376;-10.782;2022-12-13T01:29:07;59.65;;;19.58;;
56297;SDS011;42208;6.376;-10.782;2022-12-13T01:31:36;68.93;;;21.48;;
56297;SDS011;42208;6.376;-10.782;2022-12-13T01:34:04;81.25;;;31.25;;
56297;SDS011;42208;6.376;-10.782;2022-12-13T01:36:32;140.90;;;59.55;;
56297;SDS011;42208;6.376;-10.782;2022-12-13T01:39:04;164.73;;;70.32;;
56297;SDS011;42208;6.376;-10.782;2022-12-13T01:41:42;151.77;;;65.30;;
56297;SDS011;42208;6.376;-10.782;2022-12-13T01:47:18;147.05;;;64.65;;
56297;SDS011;42208;6.376;-10.782;2022-12-13T01:49:51;124.75;;;58.67;;
56297;SDS011;42208;6.376;-10.782;2022-12-13T01:52:26;126.80;;;57.90;;
56297;SDS011;42208;6.376;-10.782;2022-12-13T01:54:57;117.20;;;55.20;;
56297;SDS011;42208;6.376;-10.782;2022-12-13T01:57:41;128.50;;;57.90;;
56297;SDS011;42208;6.376;-10.782;2022-12-13T02:00:12;116.18;;;55.55;;
56297;SDS011;42208;6.376;-10.782;2022-12-13T02:02:41;133.15;;;55.58;;
56297;SDS011;42208;6.376;-10.782;2022-12-13T02:07:49;107.22;;;51.00;;
56297;SDS011;42208;6.376;-10.782;2022-12-13T02:10:18;103.30;;;48.45;;
56297;SDS011;42208;6.376;-10.782;2022-12-13T02:12:47;113.50;;;52.00;;
56297;SDS011;42208;6.376;-10.782;2022-12-13T02:15:16;109.25;;;51.35;;
56297;SDS011;42208;6.376;-10.782;2022-12-13T02:23:22;97.28;;;46.67;;
56297;SDS011;42208;6.376;-10.782;2022-12-13T02:32:08;101.20;;;49.63;;
56297;SDS011;42208;6.376;-10.782;2022-12-13T02:35:34;119.65;;;48.83;;
56297;SDS011;42208;6.376;-10.782;2022-12-13T02:40:47;111.53;;;49.85;;
56297;SDS011;42208;6.376;-10.782;2022-12-13T02:43:31;115.53;;;51.63;;
56297;SDS011;42208;6.376;-10.782;2022-12-13T02:46:14;102.82;;;49.05;;
56297;SDS011;42208;6.376;-10.782;2022-12-13T02:48:46;103.85;;;49.88;;
56297;SDS011;42208;6.376;-10.782;2022-12-13T02:51:19;94.00;;;48.20;;
56297;SDS011;42208;6.376;-10.782;2022-12-13T02:53:49;106.20;;;49.92;;
56297;SDS011;42208;6.376;-10.782;2022-12-13T02:56:17;100.20;;;48.83;;
56297;SDS011;42208;6.376;-10.782;2022-12-13T02:58:49;117.65;;;52.05;;
56297;SDS011;42208;6.376;-10.782;2022-12-13T03:04:10;103.38;;;51.17;;
56297;SDS011;42208;6.376;-10.782;2022-12-13T03:07:11;101.80;;;48.47;;
56297;SDS011;42208;6.376;-10.782;2022-12-13T03:09:58;125.05;;;51.25;;
56297;SDS011;42208;6.376;-10.782;2022-12-13T03:12:55;98.93;;;49.78;;
56297;SDS011;42208;6.376;-10.782;2022-12-13T03:18:26;111.32;;;52.25;;
56297;SDS011;42208;6.376;-10.782;2022-12-13T03:21:03;113.40;;;52.88;;
56297;SDS011;42208;6.376;-10.782;2022-12-13T03:23:34;103.43;;;52.53;;
56297;SDS011;42208;6.376;-10.782;2022-12-13T03:26:06;112.35;;;51.17;;
56297;SDS011;42208;6.376;-10.782;2022-12-13T03:28:39;109.15;;;50.60;;
56297;SDS011;42208;6.376;-10.782;2022-12-13T03:31:08;105.95;;;51.88;;
56297;SDS011;42208;6.376;-10.782;2022-12-13T03:33:36;99.00;;;49.78;;
56297;SDS011;42208;6.376;-10.782;2022-12-13T03:36:05;101.22;;;51.45;;
56297;SDS011;42208;6.376;-10.782;2022-12-13T03:38:34;110.82;;;52.90;;
56297;SDS011;42208;6.376;-10.782;2022-12-13T03:41:05;114.30;;;52.15;;
56297;SDS011;42208;6.376;-10.782;2022-12-13T03:43:39;102.90;;;52.58;;
56297;SDS011;42208;6.376;-10.782;2022-12-13T03:46:09;107.72;;;52.55;;
56297;SDS011;42208;6.376;-10.782;2022-12-13T03:48:37;114.35;;;50.67;;
56297;SDS011;42208;6.376;-10.782;2022-12-13T03:51:06;111.72;;;51.67;;
56297;SDS011;42208;6.376;-10.782;2022-12-13T03:53:34;89.53;;;49.95;;
56297;SDS011;42208;6.376;-10.782;2022-12-13T03:56:03;97.43;;;49.60;;
56297;SDS011;42208;6.376;-10.782;2022-12-13T03:58:33;111.40;;;51.13;;
56297;SDS011;42208;6.376;-10.782;2022-12-13T04:01:05;95.77;;;50.40;;
56297;SDS011;42208;6.376;-10.782;2022-12-13T04:03:34;102.35;;;49.50;;
56297;SDS011;42208;6.376;-10.782;2022-12-13T04:06:03;89.55;;;48.35;;
56297;SDS011;42208;6.376;-10.782;2022-12-13T04:08:33;92.68;;;49.25;;
56297;SDS011;42208;6.376;-10.782;2022-12-13T04:11:03;87.65;;;48.65;;
56297;SDS011;42208;6.376;-10.782;2022-12-13T04:13:31;115.85;;;49.30;;
56297;SDS011;42208;6.376;-10.782;2022-12-13T04:16:00;100.88;;;48.75;;
56297;SDS011;42208;6.376;-10.782;2022-12-13T04:18:29;121.10;;;51.97;;
56297;SDS011;42208;6.376;-10.782;2022-12-13T04:20:57;101.00;;;51.08;;
56297;SDS011;42208;6.376;-10.782;2022-12-13T04:23:26;90.38;;;46.90;;
56297;SDS011;42208;6.376;-10.782;2022-12-13T04:25:54;99.45;;;47.63;;
56297;SDS011;42208;6.376;-10.782;2022-12-13T04:28:23;96.97;;;51.70;;
56297;SDS011;42208;6.376;-10.782;2022-12-13T04:30:52;102.53;;;50.42;;
56297;SDS011;42208;6.376;-10.782;2022-12-13T04:33:20;98.47;;;49.55;;
56297;SDS011;42208;6.376;-10.782;2022-12-13T04:35:49;113.28;;;53.25;;
56297;SDS011;42208;6.376;-10.782;2022-12-13T04:38:18;113.85;;;51.92;;
56297;SDS011;42208;6.376;-10.782;2022-12-13T04:40:48;106.05;;;48.53;;
56297;SDS011;42208;6.376;-10.782;2022-12-13T04:43:16;107.75;;;48.58;;
56297;SDS011;42208;6.376;-10.782;2022-12-13T04:45:44;109.63;;;50.67;;
56297;SDS011;42208;6.376;-10.782;2022-12-13T04:48:13;106.60;;;50.28;;
56297;SDS011;42208;6.376;-10.782;2022-12-13T04:50:57;121.25;;;52.78;;
56297;SDS011;42208;6.376;-10.782;2022-12-13T04:53:28;118.93;;;52.22;;
56297;SDS011;42208;6.376;-10.782;2022-12-13T04:55:56;123.53;;;54.42;;
56297;SDS011;42208;6.376;-10.782;2022-12-13T04:58:25;105.82;;;49.80;;
56297;SDS011;42208;6.376;-10.782;2022-12-13T05:00:54;115.10;;;51.10;;
56297;SDS011;42208;6.376;-10.782;2022-12-13T05:03:23;121.70;;;51.88;;
56297;SDS011;42208;6.376;-10.782;2022-12-13T05:05:52;121.22;;;53.75;;
56297;SDS011;42208;6.376;-10.782;2022-12-13T05:08:20;119.75;;;50.75;;
56297;SDS011;42208;6.376;-10.782;2022-12-13T05:10:48;106.30;;;49.38;;
56297;SDS011;42208;6.376;-10.782;2022-12-13T05:13:17;116.72;;;52.55;;
56297;SDS011;42208;6.376;-10.782;2022-12-13T05:15:45;120.78;;;51.40;;
56297;SDS011;42208;6.376;-10.782;2022-12-13T05:18:20;118.13;;;52.13;;
56297;SDS011;42208;6.376;-10.782;2022-12-13T05:20:49;134.90;;;55.10;;
56297;SDS011;42208;6.376;-10.782;2022-12-13T05:23:18;115.70;;;51.78;;
56297;SDS011;42208;6.376;-10.782;2022-12-13T05:25:51;118.47;;;52.33;;
56297;SDS011;42208;6.376;-10.782;2022-12-13T05:28:19;112.72;;;48.42;;
56297;SDS011;42208;6.376;-10.782;2022-12-13T05:30:55;106.88;;;47.13;;
56297;SDS011;42208;6.376;-10.782;2022-12-13T05:33:24;108.32;;;46.95;;
56297;SDS011;42208;6.376;-10.782;2022-12-13T05:35:53;100.72;;;42.95;;
56297;SDS011;42208;6.376;-10.782;2022-12-13T05:38:27;92.97;;;41.60;;
56297;SDS011;42208;6.376;-10.782;2022-12-13T05:40:57;77.85;;;39.42;;
56297;SDS011;42208;6.376;-10.782;2022-12-13T05:43:25;98.13;;;40.55;;
56297;SDS011;42208;6.376;-10.782;2022-12-13T05:46:10;88.43;;;40.30;;
56297;SDS011;42208;6.376;-10.782;2022-12-13T05:48:41;93.35;;;40.70;;
56297;SDS011;42208;6.376;-10.782;2022-12-13T05:51:09;99.43;;;44.10;;
56297;SDS011;42208;6.376;-10.782;2022-12-13T05:53:39;93.03;;;41.50;;
56297;SDS011;42208;6.376;-10.782;2022-12-13T05:56:08;95.20;;;41.67;;
56297;SDS011;42208;6.376;-10.782;2022-12-13T05:58:38;98.68;;;42.15;;
56297;SDS011;42208;6.376;-10.782;2022-12-13T06:01:07;99.82;;;42.88;;
56297;SDS011;42208;6.376;-10.782;2022-12-13T06:03:38;100.78;;;40.97;;
56297;SDS011;42208;6.376;-10.782;2022-12-13T06:06:08;91.82;;;43.78;;
56297;SDS011;42208;6.376;-10.782;2022-12-13T06:08:38;92.05;;;42.15;;
56297;SDS011;42208;6.376;-10.782;2022-12-13T06:11:07;93.60;;;40.97;;
56297;SDS011;42208;6.376;-10.782;2022-12-13T06:13:41;99.05;;;41.45;;
56297;SDS011;42208;6.376;-10.782;2022-12-13T06:16:11;84.35;;;39.10;;
56297;SDS011;42208;6.376;-10.782;2022-12-13T06:18:50;92.03;;;41.58;;
56297;SDS011;42208;6.376;-10.782;2022-12-13T06:21:32;92.90;;;41.80;;
56297;SDS011;42208;6.376;-10.782;2022-12-13T06:24:09;88.95;;;41.28;;
56297;SDS011;42208;6.376;-10.782;2022-12-13T06:26:38;109.55;;;43.00;;
56297;SDS011;42208;6.376;-10.782;2022-12-13T06:29:06;96.22;;;41.38;;
56297;SDS011;42208;6.376;-10.782;2022-12-13T06:31:35;88.55;;;42.30;;
56297;SDS011;42208;6.376;-10.782;2022-12-13T06:34:03;102.22;;;43.00;;
56297;SDS011;42208;6.376;-10.782;2022-12-13T06:36:41;103.43;;;48.00;;
56297;SDS011;42208;6.376;-10.782;2022-12-13T06:39:09;107.65;;;49.17;;
56297;SDS011;42208;6.376;-10.782;2022-12-13T06:41:38;104.57;;;47.08;;
56297;SDS011;42208;6.376;-10.782;2022-12-13T06:44:06;95.40;;;46.08;;
56297;SDS011;42208;6.376;-10.782;2022-12-13T06:46:35;103.65;;;44.78;;
56297;SDS011;42208;6.376;-10.782;2022-12-13T06:49:06;89.57;;;42.65;;
56297;SDS011;42208;6.376;-10.782;2022-12-13T06:51:35;93.80;;;45.40;;
56297;SDS011;42208;6.376;-10.782;2022-12-13T06:54:03;99.90;;;46.30;;
56297;SDS011;42208;6.376;-10.782;2022-12-13T06:56:31;99.55;;;44.85;;
56297;SDS011;42208;6.376;-10.782;2022-12-13T06:59:00;92.53;;;43.92;;
56297;SDS011;42208;6.376;-10.782;2022-12-13T07:01:28;101.80;;;45.05;;
56297;SDS011;42208;6.376;-10.782;2022-12-13T07:04:04;94.43;;;41.80;;
56297;SDS011;42208;6.376;-10.782;2022-12-13T07:06:52;85.45;;;41.97;;
56297;SDS011;42208;6.376;-10.782;2022-12-13T07:09:28;73.03;;;37.45;;
56297;SDS011;42208;6.376;-10.782;2022-12-13T07:11:58;104.00;;;40.42;;
56297;SDS011;42208;6.376;-10.782;2022-12-13T07:14:26;94.78;;;42.25;;
56297;SDS011;42208;6.376;-10.782;2022-12-13T07:16:55;88.90;;;40.38;;
56297;SDS011;42208;6.376;-10.782;2022-12-13T07:19:30;95.13;;;40.95;;
56297;SDS011;42208;6.376;-10.782;2022-12-13T07:22:08;78.72;;;38.90;;
56297;SDS011;42208;6.376;-10.782;2022-12-13T07:24:36;97.38;;;40.25;;
56297;SDS011;42208;6.376;-10.782;2022-12-13T07:27:04;95.00;;;39.08;;
56297;SDS011;42208;6.376;-10.782;2022-12-13T07:29:33;102.68;;;39.13;;
56297;SDS011;42208;6.376;-10.782;2022-12-13T07:32:01;87.20;;;38.78;;
56297;SDS011;42208;6.376;-10.782;2022-12-13T07:34:29;103.00;;;39.25;;
56297;SDS011;42208;6.376;-10.782;2022-12-13T07:36:57;97.65;;;38.88;;
56297;SDS011;42208;6.376;-10.782;2022-12-13T07:39:26;91.18;;;38.33;;
56297;SDS011;42208;6.376;-10.782;2022-12-13T07:41:54;87.32;;;38.17;;
56297;SDS011;42208;6.376;-10.782;2022-12-13T07:44:23;75.18;;;36.58;;
56297;SDS011;42208;6.376;-10.782;2022-12-13T07:46:51;75.05;;;35.28;;
56297;SDS011;42208;6.376;-10.782;2022-12-13T07:49:21;75.80;;;34.22;;
56297;SDS011;42208;6.376;-10.782;2022-12-13T07:51:50;63.17;;;31.15;;
56297;SDS011;42208;6.376;-10.782;2022-12-13T07:54:18;64.05;;;29.33;;
56297;SDS011;42208;6.376;-10.782;2022-12-13T07:56:48;75.32;;;31.13;;
56297;SDS011;42208;6.376;-10.782;2022-12-13T07:59:16;75.53;;;30.30;;
56297;SDS011;42208;6.376;-10.782;2022-12-13T08:01:54;66.30;;;28.88;;
56297;SDS011;42208;6.376;-10.782;2022-12-13T08:04:27;76.75;;;28.42;;
56297;SDS011;42208;6.376;-10.782;2022-12-13T08:07:07;62.30;;;26.92;;
56297;SDS011;42208;6.376;-10.782;2022-12-13T08:09:36;73.70;;;26.52;;
56297;SDS011;42208;6.376;-10.782;2022-12-13T08:12:04;71.25;;;27.20;;
56297;SDS011;42208;6.376;-10.782;2022-12-13T08:14:33;65.60;;;23.88;;
56297;SDS011;42208;6.376;-10.782;2022-12-13T08:17:01;56.70;;;24.50;;
56297;SDS011;42208;6.376;-10.782;2022-12-13T08:19:30;46.80;;;20.48;;
56297;SDS011;42208;6.376;-10.782;2022-12-13T08:21:58;62.85;;;21.35;;
56297;SDS011;42208;6.376;-10.782;2022-12-13T08:24:28;66.70;;;23.25;;
56297;SDS011;42208;6.376;-10.782;2022-12-13T08:26:58;68.00;;;22.67;;
56297;SDS011;42208;6.376;-10.782;2022-12-13T08:29:29;63.95;;;22.52;;
56297;SDS011;42208;6.376;-10.782;2022-12-13T08:32:02;52.72;;;21.35;;
56297;SDS011;42208;6.376;-10.782;2022-12-13T08:34:32;59.55;;;21.45;;
56297;SDS011;42208;6.376;-10.782;2022-12-13T08:37:00;66.57;;;23.10;;
56297;SDS011;42208;6.376;-10.782;2022-12-13T08:39:30;52.10;;;20.73;;
56297;SDS011;42208;6.376;-10.782;2022-12-13T08:42:04;56.10;;;21.23;;
56297;SDS011;42208;6.376;-10.782;2022-12-13T08:44:49;51.45;;;21.30;;
56297;SDS011;42208;6.376;-10.782;2022-12-13T08:47:20;44.67;;;20.80;;
56297;SDS011;42208;6.376;-10.782;2022-12-13T08:49:56;61.33;;;23.73;;
56297;SDS011;42208;6.376;-10.782;2022-12-13T08:52:30;51.25;;;21.40;;
56297;SDS011;42208;6.376;-10.782;2022-12-13T08:55:07;50.85;;;20.67;;
56297;SDS011;42208;6.376;-10.782;2022-12-13T08:57:37;66.40;;;22.67;;
56297;SDS011;42208;6.376;-10.782;2022-12-13T09:00:07;51.00;;;22.00;;
56297;SDS011;42208;6.376;-10.782;2022-12-13T09:02:37;61.50;;;23.03;;
56297;SDS011;42208;6.376;-10.782;2022-12-13T09:05:06;51.13;;;21.05;;
56297;SDS011;42208;6.376;-10.782;2022-12-13T09:07:36;60.60;;;20.52;;
56297;SDS011;42208;6.376;-10.782;2022-12-13T09:10:04;49.00;;;19.98;;
56297;SDS011;42208;6.376;-10.782;2022-12-13T09:12:53;47.83;;;18.10;;
56297;SDS011;42208;6.376;-10.782;2022-12-13T09:15:28;54.25;;;17.95;;
56297;SDS011;42208;6.376;-10.782;2022-12-13T09:18:01;46.75;;;17.30;;
56297;SDS011;42208;6.376;-10.782;2022-12-13T09:20:32;66.18;;;19.67;;
56297;SDS011;42208;6.376;-10.782;2022-12-13T09:23:08;54.13;;;18.75;;
56297;SDS011;42208;6.376;-10.782;2022-12-13T09:25:53;57.92;;;19.40;;
56297;SDS011;42208;6.376;-10.782;2022-12-13T09:28:32;57.38;;;18.60;;
56297;SDS011;42208;6.376;-10.782;2022-12-13T09:31:09;59.83;;;18.55;;
56297;SDS011;42208;6.376;-10.782;2022-12-13T09:33:40;51.40;;;18.70;;
56297;SDS011;42208;6.376;-10.782;2022-12-13T09:36:10;63.42;;;21.10;;
56297;SDS011;42208;6.376;-10.782;2022-12-13T09:38:43;60.13;;;20.63;;
56297;SDS011;42208;6.376;-10.782;2022-12-13T09:44:10;91.13;;;20.23;;
56297;SDS011;42208;6.376;-10.782;2022-12-13T09:46:59;79.68;;;19.90;;
56297;SDS011;42208;6.376;-10.782;2022-12-13T09:49:43;71.30;;;20.05;;
56297;SDS011;42208;6.376;-10.782;2022-12-13T09:52:20;65.10;;;17.40;;
56297;SDS011;42208;6.376;-10.782;2022-12-13T09:54:52;80.55;;;19.05;;
56297;SDS011;42208;6.376;-10.782;2022-12-13T09:57:26;54.35;;;16.00;;
56297;SDS011;42208;6.376;-10.782;2022-12-13T10:00:04;64.90;;;16.42;;
56297;SDS011;42208;6.376;-10.782;2022-12-13T10:02:42;67.15;;;16.45;;
56297;SDS011;42208;6.376;-10.782;2022-12-13T10:07:50;54.85;;;17.25;;
56297;SDS011;42208;6.376;-10.782;2022-12-13T10:10:21;52.15;;;16.48;;
56297;SDS011;42208;6.376;-10.782;2022-12-13T10:13:02;51.67;;;15.90;;
56297;SDS011;42208;6.376;-10.782;2022-12-13T10:15:47;76.18;;;16.23;;
56297;SDS011;42208;6.376;-10.782;2022-12-13T10:18:24;49.97;;;14.35;;
56297;SDS011;42208;6.376;-10.782;2022-12-13T10:21:04;41.17;;;14.30;;
56297;SDS011;42208;6.376;-10.782;2022-12-13T10:24:14;48.13;;;14.27;;
56297;SDS011;42208;6.376;-10.782;2022-12-13T10:27:12;49.55;;;14.60;;
56297;SDS011;42208;6.376;-10.782;2022-12-13T10:32:58;49.17;;;15.47;;
56297;SDS011;42208;6.376;-10.782;2022-12-13T10:35:29;48.08;;;14.07;;
56297;SDS011;42208;6.376;-10.782;2022-12-13T10:38:00;56.20;;;15.00;;
56297;SDS011;42208;6.376;-10.782;2022-12-13T10:40:57;49.30;;;14.80;;
56297;SDS011;42208;6.376;-10.782;2022-12-13T10:43:27;55.90;;;14.38;;
56297;SDS011;42208;6.376;-10.782;2022-12-13T10:51:09;50.47;;;13.95;;
56297;SDS011;42208;6.376;-10.782;2022-12-13T10:56:16;78.10;;;20.52;;
56297;SDS011;42208;6.376;-10.782;2022-12-13T10:59:07;69.38;;;18.88;;
56297;SDS011;42208;6.376;-10.782;2022-12-13T11:01:51;84.70;;;22.63;;
56297;SDS011;42208;6.376;-10.782;2022-12-13T11:04:22;70.35;;;18.02;;
56297;SDS011;42208;6.376;-10.782;2022-12-13T11:06:54;69.60;;;16.52;;
56297;SDS011;42208;6.376;-10.782;2022-12-13T11:09:31;72.22;;;16.10;;
56297;SDS011;42208;6.376;-10.782;2022-12-13T11:12:12;54.20;;;15.82;;
56297;SDS011;42208;6.376;-10.782;2022-12-13T11:14:52;76.75;;;19.25;;
56297;SDS011;42208;6.376;-10.782;2022-12-13T11:17:29;68.95;;;18.98;;
56297;SDS011;42208;6.376;-10.782;2022-12-13T11:20:04;66.97;;;16.60;;
56297;SDS011;42208;6.376;-10.782;2022-12-13T11:22:41;77.13;;;21.13;;
56297;SDS011;42208;6.376;-10.782;2022-12-13T11:25:18;70.63;;;23.25;;
56297;SDS011;42208;6.376;-10.782;2022-12-13T11:34:10;74.53;;;22.58;;
56297;SDS011;42208;6.376;-10.782;2022-12-13T11:36:40;56.17;;;19.13;;
56297;SDS011;42208;6.376;-10.782;2022-12-13T11:39:32;66.93;;;18.67;;
56297;SDS011;42208;6.376;-10.782;2022-12-13T11:47:35;65.82;;;18.33;;
56297;SDS011;42208;6.376;-10.782;2022-12-13T11:50:34;60.78;;;15.50;;
56297;SDS011;42208;6.376;-10.782;2022-12-13T11:59:02;60.05;;;16.40;;
56297;SDS011;42208;6.376;-10.782;2022-12-13T12:01:57;50.45;;;15.48;;
56297;SDS011;42208;6.376;-10.782;2022-12-13T12:04:45;63.05;;;21.48;;
56297;SDS011;42208;6.376;-10.782;2022-12-13T12:07:37;54.33;;;15.07;;
56297;SDS011;42208;6.376;-10.782;2022-12-13T12:10:43;65.50;;;17.20;;
56297;SDS011;42208;6.376;-10.782;2022-12-13T12:13:20;63.13;;;18.20;;
56297;SDS011;42208;6.376;-10.782;2022-12-13T12:16:32;58.40;;;17.05;;
56297;SDS011;42208;6.376;-10.782;2022-12-13T12:19:14;60.65;;;16.33;;
56297;SDS011;42208;6.376;-10.782;2022-12-13T12:21:51;86.80;;;16.98;;
56297;SDS011;42208;6.376;-10.782;2022-12-13T12:41:34;48.50;;;13.20;;
56297;SDS011;42208;6.376;-10.782;2022-12-13T12:47:01;55.67;;;14.85;;
56297;SDS011;42208;6.376;-10.782;2022-12-13T13:03:41;71.50;;;18.73;;
56297;SDS011;42208;6.376;-10.782;2022-12-13T13:06:11;72.80;;;21.02;;
56297;SDS011;42208;6.376;-10.782;2022-12-13T13:21:42;62.42;;;17.25;;
56297;SDS011;42208;6.376;-10.782;2022-12-13T13:24:14;85.88;;;24.40;;
56297;SDS011;42208;6.376;-10.782;2022-12-13T13:26:48;65.88;;;18.33;;
56297;SDS011;42208;6.376;-10.782;2022-12-13T13:34:48;119.80;;;19.25;;
56297;SDS011;42208;6.376;-10.782;2022-12-13T13:42:23;62.55;;;16.58;;
56297;SDS011;42208;6.376;-10.782;2022-12-13T13:44:54;56.47;;;18.20;;
56297;SDS011;42208;6.376;-10.782;2022-12-13T13:47:34;65.80;;;15.48;;
56297;SDS011;42208;6.376;-10.782;2022-12-13T13:55:28;44.10;;;13.07;;
56297;SDS011;42208;6.376;-10.782;2022-12-13T13:58:12;53.58;;;13.48;;
56297;SDS011;42208;6.376;-10.782;2022-12-13T14:04:11;56.28;;;17.27;;
56297;SDS011;42208;6.376;-10.782;2022-12-13T14:52:46;73.93;;;15.23;;
56297;SDS011;42208;6.376;-10.782;2022-12-13T14:55:26;73.15;;;15.95;;
56297;SDS011;42208;6.376;-10.782;2022-12-13T14:57:59;61.63;;;15.48;;
56297;SDS011;42208;6.376;-10.782;2022-12-13T15:00:34;69.63;;;15.60;;
56297;SDS011;42208;6.376;-10.782;2022-12-13T15:03:06;68.40;;;17.30;;
56297;SDS011;42208;6.376;-10.782;2022-12-13T15:05:46;69.80;;;17.05;;
56297;SDS011;42208;6.376;-10.782;2022-12-13T15:08:18;67.13;;;17.73;;
56297;SDS011;42208;6.376;-10.782;2022-12-13T15:10:47;75.05;;;17.33;;
56297;SDS011;42208;6.376;-10.782;2022-12-13T15:16:00;81.15;;;17.25;;
56297;SDS011;42208;6.376;-10.782;2022-12-13T15:19:04;68.30;;;16.95;;
56297;SDS011;42208;6.376;-10.782;2022-12-13T15:22:01;79.88;;;19.25;;
56297;SDS011;42208;6.376;-10.782;2022-12-13T15:24:38;69.32;;;16.80;;
56297;SDS011;42208;6.376;-10.782;2022-12-13T15:27:12;51.50;;;15.18;;
56297;SDS011;42208;6.376;-10.782;2022-12-13T15:29:44;86.85;;;22.92;;
56297;SDS011;42208;6.376;-10.782;2022-12-13T15:32:14;83.50;;;22.38;;
56297;SDS011;42208;6.376;-10.782;2022-12-13T15:34:45;86.88;;;19.30;;
56297;SDS011;42208;6.376;-10.782;2022-12-13T15:37:19;66.70;;;19.27;;
56297;SDS011;42208;6.376;-10.782;2022-12-13T15:45:04;71.13;;;26.70;;
56297;SDS011;42208;6.376;-10.782;2022-12-13T15:47:44;73.53;;;23.05;;
56297;SDS011;42208;6.376;-10.782;2022-12-13T15:50:33;73.53;;;18.60;;
56297;SDS011;42208;6.376;-10.782;2022-12-13T15:53:18;112.22;;;24.13;;
56297;SDS011;42208;6.376;-10.782;2022-12-13T15:55:49;67.57;;;19.83;;
56297;SDS011;42208;6.376;-10.782;2022-12-13T15:58:24;74.80;;;17.55;;
56297;SDS011;42208;6.376;-10.782;2022-12-13T16:00:53;72.43;;;24.27;;
56297;SDS011;42208;6.376;-10.782;2022-12-13T16:03:22;79.18;;;26.48;;
56297;SDS011;42208;6.376;-10.782;2022-12-13T16:05:54;76.72;;;19.65;;
56297;SDS011;42208;6.376;-10.782;2022-12-13T16:08:27;85.05;;;17.15;;
56297;SDS011;42208;6.376;-10.782;2022-12-13T16:11:01;72.18;;;24.38;;
56297;SDS011;42208;6.376;-10.782;2022-12-13T16:13:34;73.18;;;22.45;;
56297;SDS011;42208;6.376;-10.782;2022-12-13T16:21:26;71.22;;;17.42;;
56297;SDS011;42208;6.376;-10.782;2022-12-13T16:23:55;77.82;;;19.48;;
56297;SDS011;42208;6.376;-10.782;2022-12-13T16:26:24;56.20;;;16.02;;
56297;SDS011;42208;6.376;-10.782;2022-12-13T16:28:54;54.88;;;16.08;;
56297;SDS011;42208;6.376;-10.782;2022-12-13T16:31:24;67.05;;;17.67;;
56297;SDS011;42208;6.376;-10.782;2022-12-13T16:33:54;67.28;;;19.50;;
56297;SDS011;42208;6.376;-10.782;2022-12-13T16:36:23;71.10;;;21.90;;
56297;SDS011;42208;6.376;-10.782;2022-12-13T16:38:51;61.75;;;18.25;;
56297;SDS011;42208;6.376;-10.782;2022-12-13T16:41:20;72.55;;;18.77;;
56297;SDS011;42208;6.376;-10.782;2022-12-13T16:43:50;79.57;;;19.83;;
56297;SDS011;42208;6.376;-10.782;2022-12-13T16:46:22;74.20;;;17.00;;
56297;SDS011;42208;6.376;-10.782;2022-12-13T16:49:18;66.05;;;19.58;;
56297;SDS011;42208;6.376;-10.782;2022-12-13T16:51:52;83.60;;;22.58;;
56297;SDS011;42208;6.376;-10.782;2022-12-13T16:54:22;69.78;;;17.90;;
56297;SDS011;42208;6.376;-10.782;2022-12-13T16:59:22;71.50;;;17.90;;
56297;SDS011;42208;6.376;-10.782;2022-12-13T17:01:52;64.80;;;17.80;;
56297;SDS011;42208;6.376;-10.782;2022-12-13T17:04:22;62.70;;;14.90;;
56297;SDS011;42208;6.376;-10.782;2022-12-13T17:06:53;67.93;;;16.30;;
56297;SDS011;42208;6.376;-10.782;2022-12-13T17:09:22;73.88;;;21.55;;
56297;SDS011;42208;6.376;-10.782;2022-12-13T17:11:50;92.00;;;23.85;;
56297;SDS011;42208;6.376;-10.782;2022-12-13T17:14:19;90.70;;;27.15;;
56297;SDS011;42208;6.376;-10.782;2022-12-13T17:16:47;59.22;;;19.02;;
56297;SDS011;42208;6.376;-10.782;2022-12-13T17:19:18;69.28;;;24.00;;
56297;SDS011;42208;6.376;-10.782;2022-12-13T17:21:46;86.50;;;26.08;;
56297;SDS011;42208;6.376;-10.782;2022-12-13T17:24:15;70.93;;;20.17;;
56297;SDS011;42208;6.376;-10.782;2022-12-13T17:26:43;89.22;;;31.23;;
56297;SDS011;42208;6.376;-10.782;2022-12-13T17:29:24;120.25;;;50.25;;
56297;SDS011;42208;6.376;-10.782;2022-12-13T17:31:52;87.28;;;23.90;;
56297;SDS011;42208;6.376;-10.782;2022-12-13T17:34:20;69.75;;;20.30;;
56297;SDS011;42208;6.376;-10.782;2022-12-13T17:36:49;63.08;;;18.15;;
56297;SDS011;42208;6.376;-10.782;2022-12-13T17:39:18;78.88;;;20.52;;
56297;SDS011;42208;6.376;-10.782;2022-12-13T17:41:46;84.40;;;27.00;;
56297;SDS011;42208;6.376;-10.782;2022-12-13T17:44:22;73.22;;;26.05;;
56297;SDS011;42208;6.376;-10.782;2022-12-13T17:46:52;101.63;;;32.95;;